PAGA

Edward G Pitka Sr Airport

Galena, Alaska, USA
PAGA 211720Z 2118/2218 33004KT P6SM SCT100 BKN150 FM220300 23007G16KT P6SM VCSH BKN050 OVC100 FM220600 22008KT P6SM SCT050 OVC100 FM221600 24012KT P6SM -SHRA BKN050
Issued Valid From Valid To
Jun-21 @ 17:20 UTC
(42 minutes ago)
Jun-21 @ 18:00 UTC
(2 minutes ago)
Jun-22 @ 18:00 UTC
(in 24 hours)
Jun-21 @ 18:00 to Jun-22 @ 03:00
PAGA 211720Z 2118/2218 33004KT P6SM SCT100 BKN150
Wind Visibility Clouds
330° at 4 knots Greater than 6 miles
  • Scattered at 10,000' AGL
  • Broken at 15,000' AGL
From Jun-22 @ 03:00 to Jun-22 @ 06:00
FM220300 23007G16KT P6SM VCSH BKN050 OVC100
Wind Visibility Clouds
230° at 7 knots
 Gusting to 16 knots
Greater than 6 miles
  • Broken at 5,000' AGL
  • Overcast at 10,000' AGL
From Jun-22 @ 06:00 to Jun-22 @ 16:00
FM220600 22008KT P6SM SCT050 OVC100
Wind Visibility Clouds
220° at 8 knots Greater than 6 miles
  • Scattered at 5,000' AGL
  • Overcast at 10,000' AGL
From Jun-22 @ 16:00 to Jun-22 @ 18:00
FM221600 24012KT P6SM -SHRA BKN050
Wind Visibility Clouds Conditions
240° at 12 knots Greater than 6 miles
  • Broken at 5,000' AGL
  • Light Rain
PAGA 211720Z 2118/2218 33004KT P6SM SCT100 BKN150 FM220300 23007G16KT P6SM VCSH BKN050 OVC100 FM220600 22008KT P6SM SCT050 OVC100 FM221600 24012KT P6SM -SHRA BKN050
Issued Jun-21 @ 17:20 UTC
(42 minutes ago)
Valid From Jun-21 @ 18:00 UTC
(2 minutes ago)
Valid To Jun-22 @ 18:00 UTC
(in 24 hours)
Jun-21 @ 18:00 - Jun-22 @ 03:00
Wind Visibility
330° at 4 knots Greater than 6 miles
Clouds
  • Scattered at 10,000' AGL
  • Broken at 15,000' AGL
From Jun-22 @ 03:00 - Jun-22 @ 06:00
Wind Visibility
230° at 7 knots
 Gusting to 16 knots
Greater than 6 miles
Clouds
  • Broken at 5,000' AGL
  • Overcast at 10,000' AGL
From Jun-22 @ 06:00 - Jun-22 @ 16:00
Wind Visibility
220° at 8 knots Greater than 6 miles
Clouds
  • Scattered at 5,000' AGL
  • Overcast at 10,000' AGL
From Jun-22 @ 16:00 - Jun-22 @ 18:00
Wind Visibility
240° at 12 knots Greater than 6 miles
Clouds
  • Broken at 5,000' AGL
Conditions
  • Light Rain